Time;durP1;ratioP1;P1;durP2;ratioP2;P2;SDS_P1;SDS_P2;PMS_P1;PMS_P2;Temp;Humidity;BMP_temperature;BMP_pressure;BME280_temperature;BME280_humidity;BME280_pressure;Samples;Min_cycle;Max_cycle;Signal;HPM_P1;HPM_P2
2023/07/03 00:00:12;;;;;;;5.72;3.22;;;19.80;74.50;;;;;;5071808;28;20055;-31
2023/07/03 00:02:40;;;;;;;5.28;3.00;;;20.80;57.40;;;;;;5071480;28;20049;-33
2023/07/03 00:05:08;;;;;;;5.95;3.20;;;20.80;57.40;;;;;;5071293;28;20131;-34
2023/07/03 00:07:35;;;;;;;6.13;3.30;;;20.40;66.90;;;;;;5073070;28;20060;-31
2023/07/03 00:10:04;;;;;;;5.00;3.00;;;20.30;74.80;;;;;;5077628;28;20127;-31
2023/07/03 00:12:30;;;;;;;6.07;3.22;;;20.90;75.10;;;;;;5091585;28;20136;-30
2023/07/03 00:14:57;;;;;;;5.97;3.42;;;21.00;68.80;;;;;;5091814;28;20127;-33
2023/07/03 00:17:24;;;;;;;5.35;3.20;;;20.50;74.60;;;;;;5091696;28;20048;-33
2023/07/03 00:19:52;;;;;;;5.10;2.90;;;21.00;74.80;;;;;;5091302;28;20055;-31
2023/07/03 00:22:20;;;;;;;5.32;2.80;;;20.40;74.50;;;;;;5091676;28;20127;-31
2023/07/03 00:24:47;;;;;;;5.07;3.10;;;;;;;;;;5073599;28;20056;-32
2023/07/03 00:27:14;;;;;;;4.65;3.08;;;19.60;74.10;;;;;;5071465;28;20083;-31
2023/07/03 00:29:41;;;;;;;6.30;3.08;;;20.50;75.20;;;;;;5071235;28;20135;-31
2023/07/03 00:32:08;;;;;;;5.90;3.28;;;20.20;66.80;;;;;;5071168;28;20048;-32
2023/07/03 00:34:35;;;;;;;6.30;3.35;;;20.40;74.30;;;;;;5072504;28;20139;-31
2023/07/03 00:37:03;;;;;;;4.90;2.97;;;20.70;57.50;;;;;;5084704;28;20127;-34
2023/07/03 00:39:30;;;;;;;5.50;2.95;;;;;;;;;;5087959;28;20132;-33
2023/07/03 00:41:57;;;;;;;8.35;3.20;;;20.20;74.20;;;;;;5075131;28;20044;-31
2023/07/03 00:44:24;;;;;;;5.85;3.10;;;21.70;70.80;;;;;;5074564;28;20536;-34
2023/07/03 00:46:51;;;;;;;8.00;3.38;;;20.40;74.70;;;;;;5074895;28;20055;-31
2023/07/03 00:49:19;;;;;;;6.18;3.08;;;20.80;63.90;;;;;;5074936;28;20062;-35
2023/07/03 00:51:47;;;;;;;6.88;3.40;;;20.70;57.60;;;;;;5074763;28;20049;-35
2023/07/03 00:54:15;;;;;;;6.50;3.17;;;20.70;57.60;;;;;;5074709;28;20080;-36
2023/07/03 00:56:42;;;;;;;6.47;3.20;;;;;;;;;;5075925;28;20132;-34
2023/07/03 00:59:09;;;;;;;6.97;3.20;;;20.50;74.30;;;;;;5074661;28;20052;-31
2023/07/03 01:01:37;;;;;;;4.97;3.00;;;20.90;74.70;;;;;;5074435;28;20127;-31
2023/07/03 01:04:07;;;;;;;4.80;2.90;;;20.70;57.60;;;;;;5074509;28;20055;-35
2023/07/03 01:06:39;;;;;;;6.53;3.30;;;20.80;61.80;;;;;;5074793;28;20056;-31
2023/07/03 01:09:06;;;;;;;5.00;3.33;;;21.30;75.80;;;;;;5074560;28;20080;-31
2023/07/03 01:11:34;;;;;;;5.65;2.97;;;20.80;66.90;;;;;;5085071;28;20479;-31
2023/07/03 01:14:01;;;;;;;5.43;3.25;;;20.60;64.50;;;;;;5073973;28;20053;-31
2023/07/03 01:16:30;;;;;;;6.45;3.40;;;20.10;74.30;;;;;;5081289;28;20468;-32
2023/07/03 01:18:57;;;;;;;6.03;3.35;;;;;;;;;;5074305;28;20055;-36
2023/07/03 01:21:26;;;;;;;5.78;3.17;;;20.60;75.50;;;;;;5074266;28;20132;-32
2023/07/03 01:23:54;;;;;;;4.68;2.85;;;20.60;57.70;;;;;;5073804;28;20395;-34
2023/07/03 01:26:22;;;;;;;4.78;2.75;;;20.90;71.60;;;;;;5073955;28;20048;-31
2023/07/03 01:28:51;;;;;;;6.07;3.33;;;21.00;74.80;;;;;;5075221;28;20056;-31
2023/07/03 01:31:18;;;;;;;5.93;3.22;;;21.00;75.70;;;;;;5073820;28;20127;-31
2023/07/03 01:33:46;;;;;;;6.35;2.92;;;;;;;;;;5073623;28;20056;-31
2023/07/03 01:36:12;;;;;;;6.32;3.15;;;21.00;75.80;;;;;;5077152;28;20091;-32
2023/07/03 01:38:41;;;;;;;10.27;3.33;;;20.60;57.80;;;;;;5082577;28;20127;-36
2023/07/03 01:41:08;;;;;;;5.93;3.05;;;;;;;;;;5086379;28;20146;-35
2023/07/03 01:43:36;;;;;;;5.10;3.00;;;21.20;74.30;;;;;;5093667;28;20051;-31
2023/07/03 01:46:03;;;;;;;7.10;3.42;;;20.50;74.70;;;;;;5093753;28;20131;-31
2023/07/03 01:48:31;;;;;;;6.00;3.05;;;20.60;57.80;;;;;;5093837;28;20044;-36
2023/07/03 01:50:58;;;;;;;5.90;3.20;;;21.60;61.90;;;;;;5091422;28;20134;-32
2023/07/03 01:53:26;;;;;;;6.05;3.20;;;20.90;75.30;;;;;;5089744;28;20086;-31
2023/07/03 01:55:56;;;;;;;5.88;2.97;;;21.40;75.90;;;;;;5090759;28;20077;-33
2023/07/03 01:58:28;;;;;;;5.60;3.10;;;21.00;75.80;;;;;;5093798;28;20075;-31
2023/07/03 02:00:57;;;;;;;6.22;3.55;;;19.80;74.40;;;;;;5093681;28;20083;-31
2023/07/03 02:03:26;;;;;;;6.03;3.10;;;21.50;58.40;;;;;;5093536;28;20127;-33
2023/07/03 02:05:53;;;;;;;5.57;3.08;;;20.20;69.90;;;;;;5093348;28;20075;-32
2023/07/03 02:08:20;;;;;;;5.20;3.03;;;;;;;;;;5090620;28;20135;-34
2023/07/03 02:10:47;;;;;;;5.50;2.90;;;21.10;75.10;;;;;;5085585;28;20122;-31
2023/07/03 02:13:14;;;;;;;5.65;3.28;;;20.10;68.90;;;;;;5093003;28;20050;-32
2023/07/03 02:15:41;;;;;;;7.72;3.65;;;;;;;;;;5093257;28;20130;-33
2023/07/03 02:18:09;;;;;;;5.53;2.80;;;20.50;74.80;;;;;;5093036;28;20044;-31
2023/07/03 02:20:38;;;;;;;6.68;3.20;;;20.30;74.80;;;;;;5093205;28;20056;-31
2023/07/03 02:23:05;;;;;;;7.00;3.33;;;;;;;;;;5088805;28;20041;-34
2023/07/03 02:25:31;;;;;;;7.05;3.13;;;20.70;74.90;;;;;;5073021;28;20059;-31
2023/07/03 02:27:58;;;;;;;5.75;3.15;;;19.70;74.90;;;;;;5072538;28;20787;-31
2023/07/03 02:30:25;;;;;;;5.55;2.90;;;;;;;;;;5072889;28;20131;-33
2023/07/03 02:32:52;;;;;;;6.32;3.10;;;20.50;75.60;;;;;;5072606;28;20055;-33
2023/07/03 02:35:20;;;;;;;6.47;3.22;;;20.50;58.00;;;;;;5072977;28;20056;-31
2023/07/03 02:37:47;;;;;;;6.72;3.10;;;20.50;61.70;;;;;;5088715;28;20055;-34
2023/07/03 02:40:14;;;;;;;5.85;2.90;;;20.90;75.90;;;;;;5077696;28;20132;-31
2023/07/03 02:42:41;;;;;;;7.28;3.00;;;20.90;60.60;;;;;;5072468;28;20055;-31
2023/07/03 02:45:09;;;;;;;6.35;3.20;;;20.20;64.40;;;;;;5074782;28;20048;-31
2023/07/03 02:47:36;;;;;;;6.32;3.15;;;;;;;;;;5083209;28;20130;-33
2023/07/03 02:50:03;;;;;;;5.13;3.17;;;20.30;74.60;;;;;;5082161;28;20048;-31
2023/07/03 02:52:31;;;;;;;5.88;2.92;;;19.90;65.30;;;;;;5081218;28;20126;-32
2023/07/03 02:54:58;;;;;;;5.95;3.00;;;20.30;63.80;;;;;;5071797;28;20163;-31
2023/07/03 02:57:25;;;;;;;6.20;3.40;;;20.60;75.50;;;;;;5071397;28;20123;-32
2023/07/03 02:59:52;;;;;;;6.22;3.10;;;19.90;64.30;;;;;;5071930;28;20131;-31
2023/07/03 03:02:19;;;;;;;5.15;2.92;;;20.30;74.90;;;;;;5071528;28;20481;-31
2023/07/03 03:04:47;;;;;;;7.47;3.22;;;;;;;;;;5071931;28;20123;-33
2023/07/03 03:07:14;;;;;;;7.55;3.10;;;;;;;;;;5079166;28;20424;-32
2023/07/03 03:09:43;;;;;;;5.80;3.00;;;20.40;75.50;;;;;;5084827;28;20127;-31
2023/07/03 03:12:10;;;;;;;6.43;3.08;;;20.90;75.40;;;;;;5078133;28;20126;-31
2023/07/03 03:14:36;;;;;;;7.10;3.30;;;20.90;63.30;;;;;;5077118;28;20479;-33
2023/07/03 03:17:03;;;;;;;6.40;3.30;;;20.80;75.20;;;;;;5091312;28;20131;-32
2023/07/03 03:19:30;;;;;;;4.75;2.65;;;;;;;;;;5083450;28;20131;-34
2023/07/03 03:21:57;;;;;;;7.82;3.30;;;20.10;75.40;;;;;;5081803;28;20128;-31
2023/07/03 03:24:24;;;;;;;5.57;2.97;;;21.00;75.60;;;;;;5082110;28;20046;-32
2023/07/03 03:26:52;;;;;;;6.05;2.97;;;20.50;58.30;;;;;;5078899;28;20124;-34
2023/07/03 03:29:19;;;;;;;6.63;3.10;;;;;;;;;;5080135;28;20051;-34
2023/07/03 03:31:46;;;;;;;6.53;3.10;;;20.00;75.40;;;;;;5085465;28;20120;-32
2023/07/03 03:34:13;;;;;;;6.72;3.05;;;;;;;;;;5086729;28;20126;-34
2023/07/03 03:36:40;;;;;;;5.82;2.78;;;20.60;75.60;;;;;;5091380;28;20459;-32
2023/07/03 03:39:07;;;;;;;7.82;3.13;;;;;;;;;;5091934;28;20087;-31
2023/07/03 03:41:34;;;;;;;6.80;3.05;;;;;;;;;;5091757;28;20416;-35
2023/07/03 03:44:02;;;;;;;6.80;2.92;;;20.20;75.10;;;;;;5072295;28;20452;-31
2023/07/03 03:46:29;;;;;;;7.90;3.25;;;21.20;76.60;;;;;;5083855;28;20442;-32
2023/07/03 03:48:56;;;;;;;7.68;3.17;;;;;;;;;;5091981;28;20131;-33
2023/07/03 03:51:23;;;;;;;5.43;3.10;;;19.90;75.00;;;;;;5091938;28;20059;-31
2023/07/03 03:53:50;;;;;;;11.38;3.20;;;;;;;;;;5091668;28;20044;-34
2023/07/03 03:56:16;;;;;;;8.63;3.17;;;20.70;76.30;;;;;;5091575;28;20058;-31
2023/07/03 03:58:43;;;;;;;7.25;3.20;;;20.30;75.20;;;;;;5081766;28;20585;-31
2023/07/03 04:01:12;;;;;;;7.07;3.08;;;20.40;65.00;;;;;;5071676;28;20136;-31
2023/07/03 04:03:38;;;;;;;8.25;2.80;;;20.00;75.40;;;;;;5071417;28;20055;-31
2023/07/03 04:06:06;;;;;;;6.25;2.90;;;20.70;75.90;;;;;;5086679;28;20044;-32
2023/07/03 04:08:33;;;;;;;5.78;2.90;;;;;;;;;;5093185;28;20127;-31
2023/07/03 04:10:59;;;;;;;5.45;3.03;;;20.40;75.20;;;;;;5095509;28;20055;-31
2023/07/03 04:13:27;;;;;;;5.75;2.88;;;;;;;;;;5094781;28;20040;-33
2023/07/03 04:16:01;;;;;;;5.80;2.63;;;20.50;76.20;;;;;;5075551;28;20131;-32
2023/07/03 04:18:29;;;;;;;6.28;2.65;;;21.50;75.80;;;;;;5075169;28;20433;-31
2023/07/03 04:20:56;;;;;;;6.25;2.60;;;20.10;75.10;;;;;;5075439;28;20052;-31
2023/07/03 04:23:23;;;;;;;6.03;2.63;;;21.10;70.20;;;;;;5074983;28;20048;-33
2023/07/03 04:25:50;;;;;;;4.72;2.80;;;20.40;76.10;;;;;;5075026;28;20127;-31
2023/07/03 04:28:17;;;;;;;5.28;2.53;;;20.00;58.40;;;;;;5075107;28;20417;-33
2023/07/03 04:30:44;;;;;;;7.53;3.17;;;20.40;75.30;;;;;;5076017;28;20045;-32
2023/07/03 04:33:11;;;;;;;5.95;2.60;;;;;;;;;;5074865;28;20071;-34
2023/07/03 04:35:39;;;;;;;6.63;2.92;;;20.70;75.40;;;;;;5074994;28;20083;-32
2023/07/03 04:38:05;;;;;;;4.95;2.85;;;20.40;76.20;;;;;;5093428;28;20572;-33
2023/07/03 04:40:33;;;;;;;5.75;2.78;;;20.20;67.20;;;;;;5094566;28;20135;-32
2023/07/03 04:42:59;;;;;;;5.97;2.53;;;19.30;73.00;;;;;;5082733;28;20049;-31
2023/07/03 04:45:28;;;;;;;5.32;2.30;;;20.80;65.10;;;;;;5074734;28;20135;-33
2023/07/03 04:47:54;;;;;;;6.50;3.20;;;21.50;75.90;;;;;;5074900;28;20109;-32
2023/07/03 04:50:24;;;;;;;5.90;2.35;;;;;;;;;;5074886;28;20074;-38
2023/07/03 04:52:52;;;;;;;5.55;2.30;;;20.40;58.30;;;;;;5074036;28;20585;-35
2023/07/03 04:55:19;;;;;;;5.72;2.58;;;;;;;;;;5085980;28;20127;-35
2023/07/03 04:57:47;;;;;;;4.00;2.30;;;20.30;75.20;;;;;;5095094;28;20131;-31
2023/07/03 05:00:15;;;;;;;5.82;2.42;;;20.40;58.30;;;;;;5094511;28;20128;-36
2023/07/03 05:02:43;;;;;;;5.95;2.30;;;;;;;;;;5092588;28;20043;-32
2023/07/03 05:05:11;;;;;;;5.00;2.65;;;;;;;;;;5094645;28;20048;-34
2023/07/03 05:07:38;;;;;;;8.23;2.90;;;19.20;58.70;;;;;;5093483;28;20052;-34
2023/07/03 05:10:07;;;;;;;7.03;2.75;;;20.90;68.50;;;;;;5094008;28;20489;-31
2023/07/03 05:12:34;;;;;;;5.53;2.60;;;;;;;;;;5073881;28;20102;-32
2023/07/03 05:15:01;;;;;;;5.57;2.30;;;21.10;76.40;;;;;;5074129;28;20127;-31
2023/07/03 05:17:27;;;;;;;6.78;2.80;;;21.20;64.70;;;;;;5074294;28;20136;-32
2023/07/03 05:19:54;;;;;;;4.38;2.20;;;;;;;;;;5073252;28;20127;-34
2023/07/03 05:22:21;;;;;;;3.90;2.30;;;20.50;75.20;;;;;;5074252;28;20161;-32
2023/07/03 05:24:49;;;;;;;5.60;2.40;;;;;;;;;;5074090;28;20127;-34
2023/07/03 05:27:17;;;;;;;5.13;2.20;;;20.50;76.00;;;;;;5073912;28;20059;-31
2023/07/03 05:29:44;;;;;;;4.82;2.13;;;20.30;76.00;;;;;;5073763;28;20123;-31
2023/07/03 05:32:11;;;;;;;4.70;2.53;;;;;;;;;;5073677;28;20044;-40
2023/07/03 05:34:38;;;;;;;5.10;2.05;;;20.70;75.20;;;;;;5073913;28;20048;-40
2023/07/03 05:37:05;;;;;;;4.93;2.10;;;20.40;58.00;;;;;;5083726;28;20055;-40
2023/07/03 05:39:32;;;;;;;3.78;2.22;;;20.20;74.80;;;;;;5094115;28;20048;-40
2023/07/03 05:41:59;;;;;;;3.45;2.00;;;20.30;64.60;;;;;;5093138;28;20047;-40
2023/07/03 05:44:27;;;;;;;7.22;2.50;;;19.80;75.50;;;;;;5093832;28;20507;-40
2023/07/03 05:46:54;;;;;;;3.40;2.03;;;19.80;74.60;;;;;;5093653;28;20051;-39
2023/07/03 05:49:20;;;;;;;4.10;2.10;;;20.00;75.20;;;;;;5094057;28;20139;-40
2023/07/03 05:51:47;;;;;;;4.13;1.98;;;20.10;63.30;;;;;;5093933;28;20127;-36
2023/07/03 05:54:16;;;;;;;5.20;2.33;;;20.50;75.40;;;;;;5093717;28;20052;-38
2023/07/03 05:56:43;;;;;;;5.32;2.20;;;20.30;75.00;;;;;;5093613;28;20093;-39
2023/07/03 05:59:09;;;;;;;5.10;2.33;;;20.30;60.20;;;;;;5087510;28;20052;-35
2023/07/03 06:01:37;;;;;;;5.38;2.40;;;20.20;74.80;;;;;;5093555;28;20130;-39
2023/07/03 06:04:04;;;;;;;4.68;2.20;;;20.20;74.80;;;;;;5093182;28;20561;-36
2023/07/03 06:06:32;;;;;;;4.60;2.00;;;20.40;75.30;;;;;;5093706;28;20075;-38
2023/07/03 06:08:59;;;;;;;4.28;1.95;;;20.00;75.20;;;;;;5093526;28;20048;-39
2023/07/03 06:11:26;;;;;;;4.15;1.90;;;;;;;;;;5092501;28;20050;-36
2023/07/03 06:13:53;;;;;;;4.38;2.20;;;;;;;;;;5092451;28;20051;-39
2023/07/03 06:16:20;;;;;;;3.83;2.03;;;;;;;;;;5092399;28;20048;-36
2023/07/03 06:18:48;;;;;;;7.05;2.75;;;20.40;57.90;;;;;;5093673;28;20393;-37
2023/07/03 06:21:15;;;;;;;4.57;1.83;;;20.00;74.60;;;;;;5093463;28;20135;-39
2023/07/03 06:23:42;;;;;;;3.38;1.88;;;19.30;74.80;;;;;;5093359;28;20556;-37
2023/07/03 06:26:10;;;;;;;3.88;1.90;;;20.10;68.50;;;;;;5093101;28;20062;-39
2023/07/03 06:28:37;;;;;;;4.10;1.90;;;20.00;75.20;;;;;;5093149;28;20052;-37
2023/07/03 06:31:04;;;;;;;6.20;2.05;;;20.20;74.70;;;;;;5080061;28;20240;-37
2023/07/03 06:33:30;;;;;;;3.97;1.70;;;20.40;69.70;;;;;;5076924;28;20127;-36
2023/07/03 06:35:59;;;;;;;4.78;1.75;;;20.40;57.80;;;;;;5075052;28;20046;-37
2023/07/03 06:38:25;;;;;;;4.78;2.17;;;19.90;75.50;;;;;;5082241;28;20111;-37
2023/07/03 06:40:58;;;;;;;4.13;2.00;;;20.40;57.70;;;;;;5092691;28;20044;-37
2023/07/03 06:43:25;;;;;;;5.32;1.90;;;21.40;72.00;;;;;;5093131;28;20396;-36
2023/07/03 06:45:52;;;;;;;3.28;1.83;;;21.20;75.20;;;;;;5093023;28;20059;-39
2023/07/03 06:48:19;;;;;;;6.55;2.08;;;;;;;;;;5091321;28;20101;-36
2023/07/03 06:50:45;;;;;;;5.15;1.90;;;20.60;75.00;;;;;;5093016;28;20135;-39
2023/07/03 06:53:14;;;;;;;5.25;2.00;;;21.50;75.30;;;;;;5092060;28;20086;-38
2023/07/03 06:55:41;;;;;;;4.15;1.70;;;;;;;;;;5092719;28;20527;-39
2023/07/03 06:58:07;;;;;;;3.72;1.80;;;20.60;66.50;;;;;;5084150;28;20558;-36
2023/07/03 07:00:34;;;;;;;4.05;1.73;;;20.40;75.20;;;;;;5083145;28;20072;-39
2023/07/03 07:03:01;;;;;;;4.63;1.80;;;;;;;;;;5075445;28;20047;-36
2023/07/03 07:05:29;;;;;;;5.28;1.77;;;20.20;74.70;;;;;;5077568;28;20560;-39
2023/07/03 07:07:56;;;;;;;3.95;2.00;;;20.80;66.20;;;;;;5082815;28;20535;-37
2023/07/03 07:10:24;;;;;;;4.43;1.63;;;20.50;75.10;;;;;;5083583;28;20131;-36
2023/07/03 07:12:51;;;;;;;4.30;1.70;;;;;;;;;;5080809;28;20047;-41
2023/07/03 07:15:18;;;;;;;4.70;1.80;;;;;;;;;;5069803;28;20051;-37
2023/07/03 07:17:45;;;;;;;5.18;1.77;;;20.20;75.00;;;;;;5072126;28;20048;-39
2023/07/03 07:20:12;;;;;;;4.15;1.80;;;20.30;75.50;;;;;;5071511;28;20058;-39
2023/07/03 07:22:39;;;;;;;3.92;1.80;;;21.00;75.40;;;;;;5071524;28;20052;-40
2023/07/03 07:25:06;;;;;;;3.75;1.42;;;;;;;;;;5071349;28;20128;-36
2023/07/03 07:27:34;;;;;;;3.90;1.80;;;20.40;74.70;;;;;;5070880;28;20044;-36
2023/07/03 07:30:01;;;;;;;3.20;1.80;;;20.80;75.90;;;;;;5071076;28;20432;-40
2023/07/03 07:32:28;;;;;;;5.07;1.60;;;;;;;;;;5071506;28;20123;-37
2023/07/03 07:34:55;;;;;;;5.63;1.50;;;20.10;75.00;;;;;;5079607;28;20124;-40
2023/07/03 07:37:22;;;;;;;3.60;1.65;;;;;;;;;;5078288;28;20048;-38
2023/07/03 07:39:49;;;;;;;6.05;1.90;;;19.70;74.40;;;;;;5082560;28;20048;-37
2023/07/03 07:42:16;;;;;;;3.00;1.40;;;20.40;74.80;;;;;;5071336;28;20055;-39
2023/07/03 07:44:44;;;;;;;4.22;1.58;;;20.40;57.90;;;;;;5070709;28;20047;-34
2023/07/03 07:47:11;;;;;;;4.10;1.60;;;;;;;;;;5071289;28;20074;-33
2023/07/03 07:49:39;;;;;;;3.97;2.03;;;20.10;65.40;;;;;;5081555;28;20126;-38
2023/07/03 07:52:07;;;;;;;2.72;1.50;;;19.60;74.50;;;;;;5080430;28;20075;-40
2023/07/03 07:54:34;;;;;;;3.65;1.70;;;20.30;75.70;;;;;;5078094;28;20044;-38
2023/07/03 07:57:01;;;;;;;5.40;1.70;;;;;;;;;;5091875;28;20059;-37
2023/07/03 07:59:28;;;;;;;3.80;1.50;;;20.80;75.20;;;;;;5081922;28;20127;-39
2023/07/03 08:01:56;;;;;;;3.58;1.50;;;20.50;75.80;;;;;;5075138;28;20048;-38
2023/07/03 08:04:22;;;;;;;6.57;1.80;;;20.60;75.70;;;;;;5071263;28;20051;-37
2023/07/03 08:06:49;;;;;;;3.38;1.73;;;;;;;;;;5071759;28;20127;-38
2023/07/03 08:09:16;;;;;;;5.13;1.60;;;19.80;74.50;;;;;;5071859;28;20059;-41
2023/07/03 08:11:44;;;;;;;3.78;1.70;;;21.30;75.70;;;;;;5091727;28;20052;-40
2023/07/03 08:14:10;;;;;;;5.07;1.50;;;20.80;75.80;;;;;;5091261;28;20051;-41
2023/07/03 08:16:37;;;;;;;3.63;1.70;;;;;;;;;;5091203;28;20052;-37
2023/07/03 08:19:06;;;;;;;4.05;1.42;;;21.10;75.10;;;;;;5091681;28;20047;-40
2023/07/03 08:21:32;;;;;;;3.50;1.75;;;20.50;74.90;;;;;;5091936;28;20048;-41
2023/07/03 08:24:00;;;;;;;4.45;1.52;;;;;;;;;;5091520;28;20127;-41
2023/07/03 08:26:26;;;;;;;3.25;1.60;;;20.30;75.30;;;;;;5091742;28;20044;-40
2023/07/03 08:28:53;;;;;;;2.92;1.60;;;20.20;74.80;;;;;;5091499;28;20131;-41
2023/07/03 08:31:20;;;;;;;3.42;1.48;;;;;;;;;;5089864;28;20131;-37
2023/07/03 08:33:47;;;;;;;3.88;1.58;;;21.70;75.50;;;;;;5080721;28;20485;-41
2023/07/03 08:36:15;;;;;;;4.38;1.65;;;20.60;58.10;;;;;;5074379;28;20131;-37
2023/07/03 08:38:42;;;;;;;4.85;1.58;;;;;;;;;;5091698;28;20062;-37
2023/07/03 08:41:11;;;;;;;3.53;1.50;;;20.40;75.40;;;;;;5071667;28;20055;-31
2023/07/03 08:43:40;;;;;;;4.20;1.60;;;20.50;75.30;;;;;;5071903;28;20075;-31
2023/07/03 08:46:08;;;;;;;5.25;1.60;;;21.00;66.10;;;;;;5083975;28;20127;-33
2023/07/03 08:48:36;;;;;;;3.80;1.40;;;20.70;75.40;;;;;;5087833;28;20044;-31
2023/07/03 08:51:03;;;;;;;3.58;1.83;;;20.60;58.80;;;;;;5091361;28;20055;-34
2023/07/03 08:53:35;;;;;;;4.55;2.03;;;20.50;76.00;;;;;;5090936;28;20052;-31
2023/07/03 08:56:04;;;;;;;5.63;1.65;;;20.60;58.90;;;;;;5093596;28;20412;-31
2023/07/03 08:58:31;;;;;;;5.90;1.73;;;;;;;;;;5090693;28;20054;-39
2023/07/03 09:01:04;;;;;;;3.20;1.40;;;20.90;76.70;;;;;;5083104;28;20123;-32
2023/07/03 09:03:33;;;;;;;8.48;2.03;;;20.60;59.20;;;;;;5094776;28;20052;-31
2023/07/03 09:06:07;;;;;;;4.53;1.63;;;21.00;76.10;;;;;;5078192;28;20056;-31
2023/07/03 09:08:39;;;;;;;4.35;1.60;;;20.50;59.20;;;;;;5084070;28;20048;-36
2023/07/03 09:11:05;;;;;;;3.17;1.60;;;20.90;71.50;;;;;;5087030;28;20039;-31
2023/07/03 09:13:35;;;;;;;2.50;1.20;;;19.70;75.80;;;;;;5082166;28;20052;-31
2023/07/03 09:16:05;;;;;;;8.73;1.50;;;20.60;69.30;;;;;;5084948;28;20048;-31
2023/07/03 09:18:35;;;;;;;2.40;1.30;;;20.90;60.20;;;;;;5090912;28;20048;-34
2023/07/03 09:21:03;;;;;;;2.45;1.27;;;20.50;74.30;;;;;;5093801;28;20131;-31
2023/07/03 09:23:32;;;;;;;3.78;1.65;;;20.70;59.40;;;;;;5094334;28;20048;-35
2023/07/03 09:26:01;;;;;;;3.58;1.40;;;20.30;75.80;;;;;;5094843;28;20129;-31
2023/07/03 09:28:28;;;;;;;3.83;1.70;;;21.20;76.70;;;;;;5094253;28;20127;-31
2023/07/03 09:30:55;;;;;;;4.88;1.52;;;21.50;76.60;;;;;;5094642;28;20131;-31
2023/07/03 09:33:22;;;;;;;4.30;1.60;;;;;;;;;;5092762;28;20052;-38
2023/07/03 09:35:48;;;;;;;4.30;1.55;;;20.90;76.60;;;;;;5083423;28;20400;-31
2023/07/03 09:38:16;;;;;;;2.38;1.10;;;20.60;76.10;;;;;;5088752;28;20052;-30
2023/07/03 09:40:44;;;;;;;2.60;1.42;;;20.10;76.50;;;;;;5087324;28;20119;-32
2023/07/03 09:43:14;;;;;;;3.88;1.60;;;20.90;76.90;;;;;;5085823;28;20064;-39
2023/07/03 09:45:41;;;;;;;3.65;1.40;;;20.40;59.30;;;;;;5086587;28;20048;-31
2023/07/03 09:48:13;;;;;;;3.47;1.30;;;20.70;76.40;;;;;;5091259;28;20048;-31
2023/07/03 09:50:40;;;;;;;1.95;1.02;;;21.20;68.60;;;;;;5090201;28;20409;-32
2023/07/03 09:53:07;;;;;;;3.83;1.70;;;20.60;70.30;;;;;;5089861;28;20048;-31
2023/07/03 09:55:34;;;;;;;3.75;1.40;;;20.90;75.90;;;;;;5080576;28;20051;-31
2023/07/03 09:58:14;;;;;;;6.50;1.40;;;20.50;63.60;;;;;;5093560;28;20571;-34
2023/07/03 10:00:46;;;;;;;2.08;1.27;;;20.60;76.10;;;;;;5080763;28;20507;-31
2023/07/03 10:03:13;;;;;;;3.20;1.35;;;;;;;;;;5073298;28;20135;-35
2023/07/03 10:05:40;;;;;;;2.78;1.35;;;21.40;77.00;;;;;;5074865;28;20116;-32
2023/07/03 10:08:07;;;;;;;2.47;1.40;;;21.70;62.10;;;;;;5084041;28;20040;-34
2023/07/03 10:10:35;;;;;;;2.22;1.20;;;;;;;;;;5093585;28;20044;-32
2023/07/03 10:13:04;;;;;;;2.13;1.27;;;20.70;71.40;;;;;;5092663;28;20554;-33
2023/07/03 10:15:35;;;;;;;3.80;1.40;;;21.00;66.80;;;;;;5092497;28;20054;-33
2023/07/03 10:18:03;;;;;;;4.93;1.30;;;21.20;76.70;;;;;;5092608;28;20127;-32
2023/07/03 10:20:34;;;;;;;2.35;1.20;;;21.80;76.10;;;;;;5092998;28;20497;-33
2023/07/03 10:23:02;;;;;;;2.08;1.20;;;;;;;;;;5088591;28;20051;-34
2023/07/03 10:25:31;;;;;;;3.33;1.40;;;20.80;75.60;;;;;;5087711;28;20078;-33
2023/07/03 10:27:59;;;;;;;3.10;1.33;;;20.70;75.80;;;;;;5093310;28;20131;-32
2023/07/03 10:30:26;;;;;;;4.03;1.20;;;20.80;63.70;;;;;;5093226;28;20377;-33
2023/07/03 10:32:54;;;;;;;4.22;1.30;;;20.80;76.30;;;;;;5093138;28;20059;-33
2023/07/03 10:35:23;;;;;;;2.30;1.40;;;20.30;75.30;;;;;;5092860;28;20048;-32
2023/07/03 10:37:52;;;;;;;3.42;1.23;;;20.70;69.80;;;;;;5091932;28;20050;-32
2023/07/03 10:40:22;;;;;;;2.70;1.10;;;21.40;76.50;;;;;;5091638;28;20126;-30
2023/07/03 10:42:51;;;;;;;2.60;1.20;;;21.60;59.70;;;;;;5092643;28;20052;-35
2023/07/03 10:45:18;;;;;;;2.85;1.20;;;20.90;59.40;;;;;;5093209;28;20127;-34
2023/07/03 10:47:48;;;;;;;3.65;1.60;;;20.40;76.50;;;;;;5092909;28;20131;-31
2023/07/03 10:50:17;;;;;;;2.83;1.27;;;21.10;68.40;;;;;;5093064;28;20070;-31
2023/07/03 10:52:47;;;;;;;1.90;1.00;;;20.70;60.80;;;;;;5092535;28;20121;-30
2023/07/03 10:55:18;;;;;;;1.85;1.10;;;22.00;76.50;;;;;;5084809;28;20409;-31
2023/07/03 10:57:47;;;;;;;3.20;1.23;;;20.10;58.70;;;;;;5072312;28;20557;-33
2023/07/03 11:00:17;;;;;;;2.28;1.17;;;21.20;75.50;;;;;;5072570;28;20131;-31
2023/07/03 11:02:46;;;;;;;2.15;1.30;;;21.60;70.00;;;;;;5072147;28;20052;-31
2023/07/03 11:05:19;;;;;;;2.50;1.20;;;21.00;66.70;;;;;;5072303;28;20123;-32
2023/07/03 11:07:50;;;;;;;2.80;1.38;;;21.50;75.40;;;;;;5071933;28;20505;-31
2023/07/03 11:10:18;;;;;;;2.60;1.30;;;21.10;58.90;;;;;;5080034;28;20175;-36
2023/07/03 11:12:47;;;;;;;3.05;1.30;;;20.20;75.00;;;;;;5083487;28;20076;-31
2023/07/03 11:15:23;;;;;;;2.78;1.25;;;21.10;75.60;;;;;;5083946;28;20067;-32
2023/07/03 11:17:56;;;;;;;2.97;1.20;;;22.00;76.90;;;;;;5084694;28;20054;-32
2023/07/03 11:20:28;;;;;;;1.90;1.10;;;21.20;58.80;;;;;;5081345;28;20052;-36
2023/07/03 11:22:58;;;;;;;1.70;1.05;;;21.90;63.40;;;;;;5081277;28;20532;-32
2023/07/03 11:25:28;;;;;;;2.75;1.20;;;21.20;58.70;;;;;;5080714;28;20119;-36
2023/07/03 11:28:00;;;;;;;1.92;1.10;;;20.20;63.50;;;;;;5081241;28;20139;-31
2023/07/03 11:30:27;;;;;;;2.10;1.17;;;;;;;;;;5080433;28;20044;-39
2023/07/03 11:32:54;;;;;;;2.83;1.15;;;21.30;76.10;;;;;;5082302;28;20047;-39
2023/07/03 11:35:21;;;;;;;2.17;1.25;;;20.90;74.90;;;;;;5083152;28;20123;-41
2023/07/03 11:37:50;;;;;;;2.53;1.70;;;22.20;73.80;;;;;;5082694;28;20127;-41
2023/07/03 11:40:34;;;;;;;4.88;1.48;;;21.20;75.90;;;;;;5080360;28;20135;-40
2023/07/03 11:43:24;;;;;;;2.70;1.35;;;21.20;75.10;;;;;;5081743;28;20464;-40
2023/07/03 11:46:02;;;;;;;1.60;0.90;;;21.20;75.70;;;;;;5071723;28;20048;-41
2023/07/03 11:48:29;;;;;;;1.77;1.00;;;21.30;74.00;;;;;;5080442;28;20072;-38
2023/07/03 11:50:56;;;;;;;1.60;1.10;;;;;;;;;;5080726;28;20048;-34
2023/07/03 11:53:43;;;;;;;1.92;1.00;;;20.40;75.20;;;;;;5079697;28;20471;-40
2023/07/03 11:56:13;;;;;;;2.97;1.17;;;21.30;58.50;;;;;;5079809;28;20040;-36
2023/07/03 11:58:39;;;;;;;2.78;1.10;;;21.00;75.10;;;;;;5081636;28;20123;-39
2023/07/03 12:01:29;;;;;;;2.38;1.15;;;21.20;58.00;;;;;;5082375;28;20053;-38
2023/07/03 12:03:57;;;;;;;4.78;1.00;;;21.40;74.70;;;;;;5080040;28;20045;-33
2023/07/03 12:06:46;;;;;;;2.33;1.00;;;21.70;75.50;;;;;;5081403;28;20377;-41
2023/07/03 12:09:38;;;;;;;1.75;1.00;;;21.10;74.80;;;;;;5070059;28;20390;-41
2023/07/03 12:12:16;;;;;;;2.63;1.15;;;21.00;75.30;;;;;;5052697;28;20065;-41
2023/07/03 12:15:09;;;;;;;2.58;1.10;;;21.20;58.00;;;;;;5071371;28;20123;-36
2023/07/03 12:17:36;;;;;;;2.38;1.20;;;21.40;75.60;;;;;;5071646;28;20059;-41
2023/07/03 12:20:06;;;;;;;3.10;1.05;;;21.00;64.70;;;;;;5071424;28;20131;-40
2023/07/03 12:22:36;;;;;;;2.15;1.30;;;21.20;58.20;;;;;;5084691;28;20055;-38
2023/07/03 12:25:06;;;;;;;1.42;0.85;;;21.30;75.40;;;;;;5091484;28;20123;-41
2023/07/03 12:27:33;;;;;;;1.35;1.02;;;;;;;;;;5090978;28;20123;-37
2023/07/03 12:30:01;;;;;;;3.22;0.90;;;21.50;75.20;;;;;;5093186;28;20091;-41
2023/07/03 12:32:28;;;;;;;2.33;1.15;;;21.60;67.00;;;;;;5095139;28;20504;-41
2023/07/03 12:35:09;;;;;;;1.35;0.85;;;21.20;58.10;;;;;;5095471;28;20080;-38
2023/07/03 12:37:36;;;;;;;1.58;1.20;;;21.20;75.10;;;;;;5094729;28;20056;-41
2023/07/03 12:40:06;;;;;;;2.45;1.08;;;21.50;74.70;;;;;;5095269;28;20122;-41
2023/07/03 12:42:32;;;;;;;5.65;1.27;;;21.70;74.50;;;;;;5095292;28;20421;-41
2023/07/03 12:45:11;;;;;;;2.00;0.90;;;21.10;74.00;;;;;;5076779;28;20052;-41
2023/07/03 12:47:38;;;;;;;2.90;1.00;;;;;;;;;;5074824;28;20059;-38
2023/07/03 12:50:06;;;;;;;1.92;1.10;;;21.60;75.10;;;;;;5074761;28;20045;-40
2023/07/03 12:52:35;;;;;;;3.05;1.17;;;21.10;74.50;;;;;;5074618;28;20048;-41
2023/07/03 12:55:02;;;;;;;4.82;1.30;;;21.20;57.50;;;;;;5074846;28;20057;-37
2023/07/03 12:57:31;;;;;;;6.40;1.52;;;21.20;57.70;;;;;;5074598;28;20131;-38
2023/07/03 12:59:58;;;;;;;3.35;1.10;;;;;;;;;;5080803;28;20075;-41
2023/07/03 13:02:25;;;;;;;2.08;1.20;;;21.20;58.00;;;;;;5083865;28;20044;-37
2023/07/03 13:04:54;;;;;;;3.72;1.23;;;20.00;58.90;;;;;;5087239;28;20058;-38
2023/07/03 13:07:22;;;;;;;3.97;1.40;;;21.60;75.90;;;;;;5083317;28;20055;-40
2023/07/03 13:09:49;;;;;;;3.95;1.23;;;21.50;60.30;;;;;;5088417;28;20135;-39